createdAt,value
2019-01-14T00:00:45.210Z,99971.27
2019-01-14T00:03:31.686Z,99967.51
2019-01-14T00:06:14.618Z,99969.42
2019-01-14T00:11:07.216Z,99972.33
2019-01-14T00:13:32.406Z,99976.48
2019-01-14T00:16:23.285Z,99969.34
2019-01-14T00:19:03.981Z,99979.25
2019-01-14T00:21:20.201Z,99983.32
2019-01-14T00:23:44.369Z,99978.25
2019-01-14T00:25:53.741Z,99974.22
2019-01-14T00:28:31.878Z,99985.30
2019-01-14T00:30:57.379Z,99984.09
2019-01-14T00:33:38.585Z,99978.61
2019-01-14T00:35:56.954Z,99984.09
2019-01-14T00:38:22.393Z,99987.33
2019-01-14T00:40:42.712Z,99984.50
2019-01-14T00:43:18.419Z,99981.98
2019-01-14T00:45:36.871Z,99977.55
2019-01-14T00:48:15.492Z,99978.75
2019-01-14T00:50:51.470Z,99980.58
2019-01-14T00:53:15.572Z,99974.43
2019-01-14T00:58:18.001Z,99966.98
2019-01-14T01:00:55.717Z,99967.31
2019-01-14T01:03:11.147Z,99965.14
2019-01-14T01:06:02.229Z,99968.92
2019-01-14T01:08:30.853Z,99966.47
2019-01-14T01:11:02.434Z,99967.38
2019-01-14T01:13:18.217Z,99973.84
2019-01-14T01:15:35.415Z,99967.30
2019-01-14T01:18:03.737Z,99969.69
2019-01-14T01:20:45.542Z,99964.61
2019-01-14T01:23:12.115Z,99956.48
2019-01-14T01:25:46.084Z,99963.90
2019-01-14T01:28:36.107Z,99964.80
2019-01-14T01:30:51.168Z,99959.44
2019-01-14T01:33:11.518Z,99961.13
2019-01-14T01:35:31.909Z,99962.30
2019-01-14T01:37:51.475Z,99955.97
2019-01-14T01:40:16.723Z,99956.89
2019-01-14T01:42:25.590Z,99954.91
2019-01-14T01:45:07.553Z,99957.78
2019-01-14T01:48:06.295Z,99955.92
2019-01-14T01:50:30.506Z,99955.20
2019-01-14T01:52:49.957Z,99962.23
2019-01-14T01:55:02.240Z,99960.64
2019-01-14T01:57:10.793Z,99961.20
2019-01-14T01:59:46.300Z,99955.55
2019-01-14T02:01:59.849Z,99957.86
2019-01-14T02:04:22.853Z,99951.61
2019-01-14T02:06:42.202Z,99956.19
2019-01-14T02:09:12.055Z,99949.62
2019-01-14T02:11:40.754Z,99950.94
2019-01-14T02:13:50.459Z,99956.23
2019-01-14T02:16:00.964Z,99947.68
2019-01-14T02:18:32.658Z,99947.55
2019-01-14T02:20:45.926Z,99955.48
2019-01-14T02:23:05.880Z,99953.17
2019-01-14T02:25:34.767Z,99951.50
2019-01-14T02:33:27.929Z,99952.00
2019-01-14T02:37:04.121Z,99962.50
2019-01-14T02:38:05.811Z,99951.91
2019-01-14T02:43:06.054Z,99959.52
2019-01-14T02:45:29.198Z,99959.71
2019-01-14T02:47:38.538Z,99965.16
2019-01-14T02:49:58.480Z,99965.88
2019-01-14T02:52:29.244Z,99966.80
2019-01-14T02:54:52.213Z,99969.93
2019-01-14T02:57:01.027Z,99964.37
2019-01-14T02:59:27.551Z,99971.03
2019-01-14T03:04:39.801Z,99970.84
2019-01-14T03:06:53.526Z,99972.70
2019-01-14T03:09:19.200Z,99941.92
2019-01-14T03:11:43.759Z,99974.06
2019-01-14T03:14:12.628Z,99976.31
2019-01-14T03:16:32.321Z,99976.02
2019-01-14T03:19:05.612Z,99973.25
2019-01-14T03:21:29.626Z,99975.80
2019-01-14T03:23:48.324Z,99974.95
2019-01-14T03:26:08.671Z,99971.28
2019-01-14T03:28:57.291Z,99973.34
2019-01-14T03:31:21.089Z,99974.02
2019-01-14T03:33:42.568Z,99976.94
2019-01-14T03:36:19.286Z,99972.43
2019-01-14T03:38:45.702Z,99972.32
2019-01-14T03:41:02.799Z,99979.92
2019-01-14T03:43:19.472Z,99979.59
2019-01-14T03:47:57.635Z,99982.64
2019-01-14T03:50:22.128Z,99976.45
2019-01-14T03:52:39.265Z,99981.23
2019-01-14T03:55:10.718Z,99976.41
2019-01-14T03:57:19.438Z,99974.81
2019-01-14T04:02:27.176Z,99967.16
2019-01-14T04:05:04.710Z,99972.36
2019-01-14T04:07:13.884Z,99967.19
2019-01-14T04:09:43.316Z,99968.77
2019-01-14T04:12:02.881Z,99964.23
2019-01-14T04:14:34.330Z,99968.89
2019-01-14T04:16:42.722Z,99974.23
2019-01-14T04:19:13.259Z,99975.84
2019-01-14T04:21:39.594Z,99971.92
2019-01-14T04:23:37.969Z,99970.23
2019-01-14T04:25:57.792Z,99976.41
2019-01-14T04:28:20.304Z,99980.08
2019-01-14T04:30:37.326Z,99979.95
2019-01-14T04:32:51.796Z,99976.89
2019-01-14T04:35:03.610Z,99974.88
2019-01-14T04:37:31.097Z,99971.11
2019-01-14T04:40:02.500Z,99972.13
2019-01-14T04:42:30.725Z,99972.86
2019-01-14T04:47:13.628Z,99972.11
2019-01-14T04:49:37.444Z,99975.05
2019-01-14T04:51:59.093Z,99970.24
2019-01-14T04:54:26.987Z,99970.91
2019-01-14T04:56:35.118Z,99975.66
2019-01-14T04:58:42.456Z,99981.02
2019-01-14T05:00:50.964Z,99971.16
2019-01-14T05:04:00.635Z,99974.33
2019-01-14T05:06:16.489Z,99960.25
2019-01-14T05:08:30.715Z,99953.33
2019-01-14T05:10:44.442Z,99954.16
2019-01-14T05:13:11.839Z,99960.45
2019-01-14T05:19:14.272Z,99951.10
2019-01-14T05:24:15.071Z,99943.56
2019-01-14T05:26:34.230Z,99945.73
2019-01-14T05:28:48.577Z,99939.77
2019-01-14T05:31:04.168Z,99939.35
2019-01-14T05:33:48.078Z,99936.84
2019-01-14T05:36:07.008Z,99932.27
2019-01-14T05:41:28.027Z,99936.91
2019-01-14T05:43:53.969Z,99916.67
2019-01-14T05:46:10.749Z,99932.64
2019-01-14T05:48:23.546Z,99927.94
2019-01-14T05:50:30.762Z,99929.80
2019-01-14T05:52:39.080Z,99932.00
2019-01-14T05:54:47.058Z,99934.27
2019-01-14T05:57:50.938Z,99924.72
2019-01-14T06:00:12.932Z,99921.70
2019-01-14T06:02:49.158Z,99920.61
2019-01-14T06:04:59.455Z,99921.26
2019-01-14T06:07:07.124Z,99919.25
2019-01-14T06:09:15.321Z,99913.11
2019-01-14T06:11:23.416Z,99913.28
2019-01-14T06:13:30.623Z,99914.67
2019-01-14T06:15:38.589Z,99912.84
2019-01-14T06:17:46.494Z,99913.23
2019-01-14T06:19:54.168Z,99918.28
2019-01-14T06:22:01.562Z,99913.88
2019-01-14T06:24:09.781Z,99912.80
2019-01-14T06:26:17.816Z,99909.02
2019-01-14T06:28:25.004Z,99914.75
2019-01-14T06:30:32.787Z,99908.66
2019-01-14T06:32:40.740Z,99908.52
2019-01-14T06:34:48.508Z,99901.16
2019-01-14T06:36:55.660Z,99909.53
2019-01-14T06:39:02.991Z,99913.30
2019-01-14T06:41:11.711Z,99907.03
2019-01-14T06:43:19.226Z,99908.48
2019-01-14T06:45:26.662Z,99908.26
2019-01-14T06:47:33.791Z,99910.31
2019-01-14T06:49:41.110Z,99912.38
2019-01-14T06:51:48.533Z,99906.23
2019-01-14T06:53:56.398Z,99909.83
2019-01-14T06:56:03.779Z,99906.12
2019-01-14T06:58:12.396Z,99905.52
2019-01-14T07:00:29.933Z,99901.69
2019-01-14T07:02:38.473Z,99905.77
2019-01-14T07:04:46.240Z,99900.26
2019-01-14T07:06:53.497Z,99899.64
2019-01-14T07:09:01.013Z,99898.50
2019-01-14T07:11:09.864Z,99902.09
2019-01-14T07:13:20.345Z,99905.39
2019-01-14T07:15:27.773Z,99906.67
2019-01-14T07:17:34.963Z,99904.44
2019-01-14T07:22:07.173Z,99902.40
2019-01-14T07:24:15.865Z,99908.95
2019-01-14T07:26:22.981Z,99908.89
2019-01-14T07:28:30.276Z,99904.55
2019-01-14T07:30:37.632Z,99901.43
2019-01-14T07:32:44.920Z,99901.69
2019-01-14T07:34:52.260Z,99897.83
2019-01-14T07:36:59.806Z,99896.54
2019-01-14T07:39:09.469Z,99898.83
2019-01-14T07:41:16.839Z,99901.91
2019-01-14T07:43:24.167Z,99900.27
2019-01-14T07:45:32.417Z,99905.05
2019-01-14T07:47:40.205Z,99902.92
2019-01-14T07:49:47.612Z,99905.17
2019-01-14T07:51:54.796Z,99910.73
2019-01-14T07:54:02.157Z,99916.52
2019-01-14T07:56:11.252Z,99911.06
2019-01-14T07:58:19.483Z,99913.65
2019-01-14T08:00:28.292Z,99914.98
2019-01-14T08:02:35.693Z,99917.59
2019-01-14T08:04:43.151Z,99918.07
2019-01-14T08:06:50.339Z,99920.28
2019-01-14T08:08:57.539Z,99915.60
2019-01-14T08:11:04.830Z,99917.75
2019-01-14T08:13:12.258Z,99918.73
2019-01-14T08:15:24.732Z,99917.18
2019-01-14T08:17:32.129Z,99917.25
2019-01-14T08:19:39.636Z,99910.80
2019-01-14T08:21:47.557Z,99910.06
2019-01-14T08:23:55.052Z,99915.27
2019-01-14T08:26:02.478Z,99912.86
2019-01-14T08:28:09.668Z,99918.66
2019-01-14T08:30:22.210Z,99915.41
2019-01-14T08:32:37.365Z,99926.09
2019-01-14T08:34:54.382Z,99919.94
2019-01-14T08:37:01.673Z,99909.92
2019-01-14T08:39:11.429Z,99915.73
2019-01-14T08:41:33.804Z,99909.78
2019-01-14T08:44:00.458Z,99910.80
2019-01-14T08:46:11.063Z,99907.09
2019-01-14T08:48:19.306Z,99907.64
2019-01-14T08:50:36.217Z,99912.43
2019-01-14T08:52:43.733Z,99903.83
2019-01-14T08:55:04.344Z,99903.96
2019-01-14T08:57:13.069Z,99899.58
2019-01-14T08:59:29.415Z,99905.38
2019-01-14T09:02:16.007Z,99897.97
2019-01-14T09:04:22.126Z,99899.55
2019-01-14T09:06:30.722Z,99907.13
2019-01-14T09:08:49.563Z,99904.91
2019-01-14T09:11:01.305Z,99901.27
2019-01-14T09:13:12.481Z,99900.50
2019-01-14T09:15:25.866Z,99898.02
2019-01-14T09:17:45.018Z,99894.02
2019-01-14T09:20:07.375Z,99900.97
2019-01-14T09:22:20.586Z,99894.16
2019-01-14T09:24:39.606Z,99895.83
2019-01-14T09:26:45.593Z,99891.84
2019-01-14T09:29:08.117Z,99892.34
2019-01-14T09:31:19.772Z,99887.72
2019-01-14T09:33:32.284Z,99888.05
2019-01-14T09:35:43.823Z,99885.66
2019-01-14T09:37:58.783Z,99885.41
2019-01-14T09:40:08.515Z,99888.23
2019-01-14T09:42:15.695Z,99888.14
2019-01-14T09:44:23.061Z,99885.74
2019-01-14T09:46:30.304Z,99879.95
2019-01-14T09:48:37.693Z,99879.86
2019-01-14T09:50:44.987Z,99879.94
2019-01-14T09:52:52.195Z,99880.87
2019-01-14T09:55:09.871Z,99876.23
2019-01-14T09:57:21.052Z,99876.33
2019-01-14T09:59:31.995Z,99878.22
2019-01-14T10:01:39.399Z,99870.69
2019-01-14T10:03:46.880Z,99876.31
2019-01-14T10:05:54.762Z,99871.16
2019-01-14T10:08:02.200Z,99867.97
2019-01-14T10:10:12.111Z,99870.08
2019-01-14T10:12:19.086Z,99870.08
2019-01-14T10:14:45.736Z,99876.48
2019-01-14T10:16:53.546Z,99867.62
2019-01-14T10:19:01.324Z,99875.52
2019-01-14T10:21:08.673Z,99871.24
2019-01-14T10:23:16.586Z,99873.69
2019-01-14T10:25:33.267Z,99865.31
2019-01-14T10:27:51.580Z,99866.45
2019-01-14T10:30:07.098Z,99866.78
2019-01-14T10:32:14.916Z,99864.33
2019-01-14T10:34:33.521Z,99856.81
2019-01-14T10:36:40.875Z,99858.05
2019-01-14T10:38:57.566Z,99854.38
2019-01-14T10:41:12.193Z,99862.38
2019-01-14T10:43:28.446Z,99862.09
2019-01-14T10:45:43.535Z,99857.94
2019-01-14T10:47:53.611Z,99858.25
2019-01-14T10:50:13.225Z,99859.56
2019-01-14T10:52:35.321Z,99856.19
2019-01-14T10:54:51.970Z,99856.86
2019-01-14T10:57:00.085Z,99858.95
2019-01-14T10:59:08.062Z,99857.00
2019-01-14T11:01:15.601Z,99853.19
2019-01-14T11:03:23.034Z,99853.51
2019-01-14T11:05:32.075Z,99850.63
2019-01-14T11:07:39.419Z,99847.20
2019-01-14T11:09:46.986Z,99850.02
2019-01-14T11:11:54.397Z,99852.95
2019-01-14T11:14:02.603Z,99842.53
2019-01-14T11:16:10.183Z,99850.70
2019-01-14T11:18:17.855Z,99849.14
2019-01-14T11:20:30.329Z,99851.91
2019-01-14T11:22:44.329Z,99847.05
2019-01-14T11:25:07.362Z,99858.59
2019-01-14T11:27:20.971Z,99851.39
2019-01-14T11:29:54.581Z,99852.09
2019-01-14T11:32:08.413Z,99852.12
2019-01-14T11:34:25.733Z,99852.00
2019-01-14T11:36:35.889Z,99856.75
2019-01-14T11:39:05.212Z,99854.76
2019-01-14T11:41:18.142Z,99854.59
2019-01-14T11:43:33.680Z,99854.78
2019-01-14T11:45:47.811Z,99852.33
2019-01-14T11:47:56.407Z,99858.28
2019-01-14T11:50:12.478Z,99848.23
2019-01-14T11:52:29.611Z,99858.59
2019-01-14T11:54:45.207Z,99854.38
2019-01-14T11:56:52.705Z,99861.36
2019-01-14T11:59:12.494Z,99859.11
2019-01-14T12:01:30.128Z,99871.63
2019-01-14T12:03:40.989Z,99859.32
2019-01-14T12:05:53.666Z,99865.23
2019-01-14T12:08:04.558Z,99862.98
2019-01-14T12:10:22.585Z,99863.84
2019-01-14T12:12:38.277Z,99861.46
2019-01-14T12:14:50.564Z,99865.32
2019-01-14T12:16:57.511Z,99867.84
2019-01-14T12:19:10.490Z,99857.41
2019-01-14T12:21:20.812Z,99867.53
2019-01-14T12:23:33.304Z,99864.28
2019-01-14T12:25:47.134Z,99864.48
2019-01-14T12:28:07.454Z,99864.29
2019-01-14T12:30:36.016Z,99862.22
2019-01-14T12:33:05.153Z,99860.73
2019-01-14T12:35:16.631Z,99858.59
2019-01-14T12:37:24.266Z,99871.91
2019-01-14T12:39:38.921Z,99868.02
2019-01-14T12:41:52.513Z,99872.73
2019-01-14T12:44:08.440Z,99865.56
2019-01-14T12:46:23.808Z,99862.17
2019-01-14T12:48:32.035Z,99858.85
2019-01-14T12:50:39.954Z,99861.55
2019-01-14T12:52:47.265Z,99859.39
2019-01-14T12:54:54.647Z,99857.38
2019-01-14T12:57:02.469Z,99865.25
2019-01-14T12:59:09.784Z,99864.80
2019-01-14T13:01:17.137Z,99861.37
2019-01-14T13:03:24.565Z,99856.84
2019-01-14T13:05:32.473Z,99852.86
2019-01-14T13:07:39.805Z,99854.58
2019-01-14T13:09:47.503Z,99854.98
2019-01-14T13:11:54.826Z,99854.82
2019-01-14T13:14:02.324Z,99845.34
2019-01-14T13:16:10.501Z,99847.69
2019-01-14T13:18:17.924Z,99846.58
2019-01-14T13:20:25.668Z,99836.61
2019-01-14T13:22:45.066Z,99831.32
2019-01-14T13:24:52.560Z,99836.75
2019-01-14T13:27:00.324Z,99836.02
2019-01-14T13:29:07.437Z,99835.84
2019-01-14T13:31:15.777Z,99836.36
2019-01-14T13:33:23.954Z,99831.88
2019-01-14T13:35:31.389Z,99836.36
2019-01-14T13:37:46.608Z,99831.56
2019-01-14T13:39:57.913Z,99831.56
2019-01-14T13:42:05.589Z,99826.66
2019-01-14T13:44:13.669Z,99831.20
2019-01-14T13:46:26.188Z,99822.23
2019-01-14T13:48:31.615Z,99828.52
2019-01-14T13:50:45.042Z,99826.13
2019-01-14T13:52:52.534Z,99822.48
2019-01-14T13:54:59.792Z,99817.70
2019-01-14T13:57:07.237Z,99816.33
2019-01-14T13:59:23.412Z,99824.88
2019-01-14T14:01:29.962Z,99813.50
2019-01-14T14:04:11.448Z,99806.73
2019-01-14T14:06:23.797Z,99805.77
2019-01-14T14:08:49.158Z,99811.95
2019-01-14T14:14:10.203Z,99812.90
2019-01-14T14:16:22.762Z,99818.42
2019-01-14T14:24:28.334Z,99829.55
2019-01-14T14:26:38.563Z,99823.33
2019-01-14T14:28:53.359Z,99823.81
2019-01-14T14:31:04.043Z,99817.64
2019-01-14T14:33:23.995Z,99817.37
2019-01-14T14:35:42.858Z,99813.62
2019-01-14T14:38:00.633Z,99818.44
2019-01-14T14:40:32.288Z,99811.02
2019-01-14T14:42:56.772Z,99812.20
2019-01-14T14:45:15.396Z,99812.81
2019-01-14T14:47:24.190Z,99808.28
2019-01-14T14:49:37.769Z,99808.88
2019-01-14T14:51:49.822Z,99811.02
2019-01-14T14:54:03.678Z,99809.31
2019-01-14T14:56:27.759Z,99809.28
2019-01-14T14:58:39.018Z,99817.17
2019-01-14T15:00:48.414Z,99815.88
2019-01-14T15:03:04.338Z,99823.28
2019-01-14T15:05:17.137Z,99828.43
2019-01-14T15:07:42.262Z,99821.90
2019-01-14T15:09:59.770Z,99824.96
2019-01-14T15:12:14.506Z,99821.55
2019-01-14T15:14:28.668Z,99816.19
2019-01-14T15:16:35.900Z,99824.24
2019-01-14T15:18:48.179Z,99817.45
2019-01-14T15:20:59.958Z,99818.69
2019-01-14T15:23:12.799Z,99821.34
2019-01-14T15:25:26.885Z,99823.08
2019-01-14T15:27:43.933Z,99823.47
2019-01-14T15:29:57.086Z,99825.76
2019-01-14T15:32:08.347Z,99834.17
2019-01-14T15:34:22.638Z,99829.64
2019-01-14T15:36:32.213Z,99839.34
2019-01-14T15:38:39.460Z,99833.77
2019-01-14T15:40:46.888Z,99831.01
2019-01-14T15:43:05.963Z,99841.85
2019-01-14T15:45:20.312Z,99844.34
2019-01-14T15:47:28.871Z,99845.93
2019-01-14T15:49:44.349Z,99844.32
2019-01-14T15:51:55.434Z,99840.77
2019-01-14T15:54:14.644Z,99844.52
2019-01-14T15:56:29.067Z,99853.64
2019-01-14T15:58:43.073Z,99860.30
2019-01-14T16:00:57.968Z,99855.23
2019-01-14T16:03:08.407Z,99866.97
2019-01-14T16:05:22.571Z,99862.09
2019-01-14T16:07:30.267Z,99855.56
2019-01-14T16:09:43.121Z,99853.12
2019-01-14T16:12:06.575Z,99854.09
2019-01-14T16:14:34.294Z,99848.22
2019-01-14T16:16:37.264Z,99849.20
2019-01-14T16:18:52.544Z,99836.95
2019-01-14T16:20:59.748Z,99809.20
2019-01-14T16:23:37.107Z,99849.95
2019-01-14T16:26:06.321Z,99849.71
2019-01-14T16:28:22.368Z,99845.08
2019-01-14T16:30:35.890Z,99837.67
2019-01-14T16:32:55.529Z,99835.13
2019-01-14T16:35:05.821Z,99836.38
2019-01-14T16:37:17.057Z,99833.66
2019-01-14T16:39:27.826Z,99834.87
2019-01-14T16:41:40.617Z,99835.38
2019-01-14T16:43:57.485Z,99831.02
2019-01-14T16:46:10.672Z,99833.30
2019-01-14T16:48:18.284Z,99823.20
2019-01-14T16:50:32.819Z,99818.75
2019-01-14T16:52:46.237Z,99823.33
2019-01-14T16:55:03.011Z,99818.08
2019-01-14T16:57:10.442Z,99822.38
2019-01-14T16:59:32.450Z,99815.77
2019-01-14T17:01:45.789Z,99803.58
2019-01-14T17:04:00.633Z,99799.80
2019-01-14T17:06:14.931Z,99794.94
2019-01-14T17:08:33.240Z,99790.66
2019-01-14T17:10:48.317Z,99791.27
2019-01-14T17:13:04.383Z,99783.62
2019-01-14T17:15:21.861Z,99782.44
2019-01-14T17:17:29.328Z,99777.85
2019-01-14T17:19:46.505Z,99773.55
2019-01-14T17:21:58.093Z,99769.38
2019-01-14T17:24:13.307Z,99762.66
2019-01-14T17:26:25.750Z,99757.97
2019-01-14T17:28:41.409Z,99743.83
2019-01-14T17:30:58.625Z,99750.14
2019-01-14T17:36:31.410Z,99733.33
2019-01-14T17:38:44.813Z,99730.42
2019-01-14T17:40:55.114Z,99728.75
2019-01-14T17:43:09.690Z,99719.45
2019-01-14T17:45:37.993Z,99716.69
2019-01-14T17:48:02.566Z,99716.28
2019-01-14T17:50:16.321Z,99713.64
2019-01-14T17:52:46.656Z,99711.02
2019-01-14T17:54:57.476Z,99703.08
2019-01-14T17:57:05.260Z,99701.72
2019-01-14T17:59:20.388Z,99704.13
2019-01-14T18:01:35.202Z,99703.78
2019-01-14T18:03:48.009Z,99692.11
2019-01-14T18:05:58.843Z,99696.56
2019-01-14T18:08:09.112Z,99690.63
2019-01-14T18:10:18.877Z,99683.71
2019-01-14T18:12:29.412Z,99689.03
2019-01-14T18:14:45.075Z,99681.66
2019-01-14T18:16:54.462Z,99684.62
2019-01-14T18:19:05.083Z,99688.59
2019-01-14T18:21:18.179Z,99685.18
2019-01-14T18:23:28.819Z,99684.61
2019-01-14T18:25:41.464Z,99676.23
2019-01-14T18:27:53.947Z,99673.53
2019-01-14T18:30:36.261Z,99679.85
2019-01-14T18:33:00.181Z,99659.28
2019-01-14T18:35:07.939Z,99657.30
2019-01-14T18:37:15.577Z,99660.20
2019-01-14T18:39:23.074Z,99655.72
2019-01-14T18:41:30.517Z,99643.39
2019-01-14T18:43:38.490Z,99646.94
2019-01-14T18:45:45.906Z,99643.92
2019-01-14T18:47:53.651Z,99641.21
2019-01-14T18:50:01.013Z,99648.29
2019-01-14T18:52:08.217Z,99641.55
2019-01-14T18:54:16.080Z,99636.23
2019-01-14T18:56:25.174Z,99634.69
2019-01-14T18:58:37.096Z,99625.93
2019-01-14T19:00:44.220Z,99632.30
2019-01-14T19:02:51.772Z,99631.56
2019-01-14T19:04:59.265Z,99628.33
2019-01-14T19:07:06.650Z,99626.97
2019-01-14T19:09:36.361Z,99631.84
2019-01-14T19:11:59.591Z,99629.73
2019-01-14T19:14:06.333Z,99624.48
2019-01-14T19:16:16.403Z,99621.39
2019-01-14T19:18:25.456Z,99617.70
2019-01-14T19:20:33.692Z,99623.66
2019-01-14T19:22:59.494Z,99614.26
2019-01-14T19:25:15.138Z,99611.56
2019-01-14T19:27:28.984Z,99621.29
2019-01-14T19:29:45.265Z,99614.14
2019-01-14T19:32:15.848Z,99620.00
2019-01-14T19:34:34.195Z,99621.27
2019-01-14T19:36:41.729Z,99611.23
2019-01-14T19:39:02.700Z,99608.27
2019-01-14T19:41:25.734Z,99602.58
2019-01-14T19:43:45.118Z,99595.15
2019-01-14T19:46:01.699Z,99590.95
2019-01-14T19:48:15.015Z,99586.56
2019-01-14T19:50:30.073Z,99588.41
2019-01-14T19:52:46.844Z,99579.95
2019-01-14T19:54:59.545Z,99576.27
2019-01-14T19:57:06.996Z,99580.16
2019-01-14T19:59:20.687Z,99574.34
2019-01-14T20:01:36.984Z,99566.52
2019-01-14T20:03:51.083Z,99562.77
2019-01-14T20:06:04.712Z,99565.30
2019-01-14T20:08:30.708Z,99563.55
2019-01-14T20:13:20.782Z,99566.05
2019-01-14T20:15:32.779Z,99561.36
2019-01-14T20:17:42.136Z,99558.81
2019-01-14T20:20:00.084Z,99563.19
2019-01-14T20:22:14.914Z,99569.09
2019-01-14T20:24:20.838Z,99559.98
2019-01-14T20:26:33.936Z,99568.65
2019-01-14T20:28:46.995Z,99560.86
2019-01-14T20:31:00.158Z,99563.19
2019-01-14T20:33:07.292Z,99571.34
2019-01-14T20:35:18.417Z,99544.95
2019-01-14T20:37:26.265Z,99552.27
2019-01-14T20:39:38.345Z,99553.65
2019-01-14T20:41:49.121Z,99554.39
2019-01-14T20:44:05.161Z,99551.31
2019-01-14T20:46:09.470Z,99551.73
